sensor_id;sensor_type;location;lat;lon;timestamp;pressure;altitude;pressure_sealevel;temperature;humidity
30338;BME280;17143;51.888;5.408;2023-09-30T00:12:42;102325.50;;;14.58;100.00
30338;BME280;17143;51.888;5.408;2023-09-30T00:27:44;102318.06;;;14.51;100.00
30338;BME280;17143;51.888;5.408;2023-09-30T00:42:46;102353.50;;;14.45;100.00
30338;BME280;17143;51.888;5.408;2023-09-30T00:57:48;102327.16;;;14.43;100.00
30338;BME280;17143;51.888;5.408;2023-09-30T01:12:51;102341.63;;;14.37;100.00
30338;BME280;17143;51.888;5.408;2023-09-30T01:27:53;102377.69;;;14.28;100.00
30338;BME280;17143;51.888;5.408;2023-09-30T01:42:56;102366.84;;;14.35;100.00
30338;BME280;17143;51.888;5.408;2023-09-30T01:57:58;102349.84;;;14.43;100.00
30338;BME280;17143;51.888;5.408;2023-09-30T02:13:00;102367.41;;;14.44;100.00
30338;BME280;17143;51.888;5.408;2023-09-30T02:28:03;102373.69;;;14.33;100.00
30338;BME280;17143;51.888;5.408;2023-09-30T02:43:05;102350.09;;;14.33;100.00
30338;BME280;17143;51.888;5.408;2023-09-30T02:58:08;102329.94;;;14.32;100.00
30338;BME280;17143;51.888;5.408;2023-09-30T03:13:10;102351.09;;;14.22;100.00
30338;BME280;17143;51.888;5.408;2023-09-30T03:28:12;102348.19;;;14.17;100.00
30338;BME280;17143;51.888;5.408;2023-09-30T03:43:14;102334.09;;;14.15;100.00
30338;BME280;17143;51.888;5.408;2023-09-30T03:58:16;102334.09;;;14.15;100.00
30338;BME280;17143;51.888;5.408;2023-09-30T04:13:18;102344.75;;;14.18;100.00
30338;BME280;17143;51.888;5.408;2023-09-30T04:28:20;102350.53;;;14.13;100.00
30338;BME280;17143;51.888;5.408;2023-09-30T04:43:22;102355.16;;;14.03;100.00
30338;BME280;17143;51.888;5.408;2023-09-30T04:58:24;102363.03;;;13.90;100.00
30338;BME280;17143;51.888;5.408;2023-09-30T05:13:26;102390.44;;;13.82;100.00
30338;BME280;17143;51.888;5.408;2023-09-30T05:28:28;102384.41;;;13.83;100.00
30338;BME280;17143;51.888;5.408;2023-09-30T05:43:30;102387.81;;;13.82;100.00
30338;BME280;17143;51.888;5.408;2023-09-30T05:58:33;102381.00;;;13.71;100.00
30338;BME280;17143;51.888;5.408;2023-09-30T06:13:35;102396.50;;;13.68;100.00
30338;BME280;17143;51.888;5.408;2023-09-30T06:28:37;102381.56;;;14.07;100.00
30338;BME280;17143;51.888;5.408;2023-09-30T06:43:39;102411.72;;;16.42;100.00
30338;BME280;17143;51.888;5.408;2023-09-30T06:58:41;102438.66;;;18.19;98.56
30338;BME280;17143;51.888;5.408;2023-09-30T07:13:43;102451.63;;;20.47;88.61
30338;BME280;17143;51.888;5.408;2023-09-30T07:28:45;102466.84;;;21.45;82.59
30338;BME280;17143;51.888;5.408;2023-09-30T07:43:47;102492.63;;;22.78;77.65
30338;BME280;17143;51.888;5.408;2023-09-30T07:58:49;102488.38;;;23.74;72.99
30338;BME280;17143;51.888;5.408;2023-09-30T08:13:51;102483.81;;;24.75;69.90
30338;BME280;17143;51.888;5.408;2023-09-30T08:28:53;102446.53;;;25.17;68.09
30338;BME280;17143;51.888;5.408;2023-09-30T08:43:59;102465.09;;;26.06;65.05
30338;BME280;17143;51.888;5.408;2023-09-30T08:59:02;102470.69;;;26.18;63.51
30338;BME280;17143;51.888;5.408;2023-09-30T09:14:05;102498.88;;;27.14;60.43
30338;BME280;17143;51.888;5.408;2023-09-30T09:29:07;102525.38;;;27.61;59.77
30338;BME280;17143;51.888;5.408;2023-09-30T09:44:09;102537.78;;;27.54;59.43
30338;BME280;17143;51.888;5.408;2023-09-30T09:59:13;102534.63;;;27.19;59.48
30338;BME280;17143;51.888;5.408;2023-09-30T10:14:30;102557.00;;;27.25;58.37
30338;BME280;17143;51.888;5.408;2023-09-30T10:29:40;102507.81;;;27.16;59.24
30338;BME280;17143;51.888;5.408;2023-09-30T10:44:43;102500.22;;;26.82;59.83
30338;BME280;17143;51.888;5.408;2023-09-30T10:59:45;102501.63;;;26.59;59.95
30338;BME280;17143;51.888;5.408;2023-09-30T11:14:59;102503.50;;;25.21;60.66
30338;BME280;17143;51.888;5.408;2023-09-30T11:30:02;102496.47;;;24.83;63.17
30338;BME280;17143;51.888;5.408;2023-09-30T11:45:18;102461.94;;;24.89;59.88
30338;BME280;17143;51.888;5.408;2023-09-30T12:00:20;102485.97;;;25.32;59.04
30338;BME280;17143;51.888;5.408;2023-09-30T12:15:23;102466.34;;;25.30;57.75
30338;BME280;17143;51.888;5.408;2023-09-30T12:30:25;102433.97;;;25.12;55.73
30338;BME280;17143;51.888;5.408;2023-09-30T12:45:27;102436.22;;;24.91;57.28
30338;BME280;17143;51.888;5.408;2023-09-30T13:00:31;102427.59;;;24.65;57.96
30338;BME280;17143;51.888;5.408;2023-09-30T13:15:34;102434.84;;;24.33;56.98
30338;BME280;17143;51.888;5.408;2023-09-30T13:30:37;102414.50;;;24.35;57.09
30338;BME280;17143;51.888;5.408;2023-09-30T13:45:39;102392.03;;;24.24;58.19
30338;BME280;17143;51.888;5.408;2023-09-30T14:00:46;102387.72;;;23.93;57.88
30338;BME280;17143;51.888;5.408;2023-09-30T14:15:49;102396.81;;;24.03;58.39
30338;BME280;17143;51.888;5.408;2023-09-30T14:30:51;102372.53;;;23.89;60.44
30338;BME280;17143;51.888;5.408;2023-09-30T14:45:53;102363.53;;;23.50;61.54
30338;BME280;17143;51.888;5.408;2023-09-30T15:00:55;102356.28;;;23.43;62.87
30338;BME280;17143;51.888;5.408;2023-09-30T15:15:57;102337.69;;;23.44;62.88
30338;BME280;17143;51.888;5.408;2023-09-30T15:30:59;102338.09;;;23.28;62.88
30338;BME280;17143;51.888;5.408;2023-09-30T15:46:01;102326.88;;;22.74;64.35
30338;BME280;17143;51.888;5.408;2023-09-30T16:01:04;102322.00;;;22.60;66.13
30338;BME280;17143;51.888;5.408;2023-09-30T16:16:06;102319.88;;;22.48;66.67
30338;BME280;17143;51.888;5.408;2023-09-30T16:31:08;102324.41;;;22.22;68.09
30338;BME280;17143;51.888;5.408;2023-09-30T16:46:10;102351.44;;;22.09;69.34
30338;BME280;17143;51.888;5.408;2023-09-30T17:01:12;102349.56;;;21.80;71.12
30338;BME280;17143;51.888;5.408;2023-09-30T17:16:18;102331.34;;;21.64;72.34
30338;BME280;17143;51.888;5.408;2023-09-30T17:31:20;102334.59;;;21.29;73.00
30338;BME280;17143;51.888;5.408;2023-09-30T17:46:22;102354.63;;;20.97;74.35
30338;BME280;17143;51.888;5.408;2023-09-30T18:01:24;102338.63;;;20.70;75.95
30338;BME280;17143;51.888;5.408;2023-09-30T18:16:26;102333.22;;;20.67;77.03
30338;BME280;17143;51.888;5.408;2023-09-30T18:31:28;102336.00;;;20.48;77.68
30338;BME280;17143;51.888;5.408;2023-09-30T18:46:30;102338.53;;;20.45;79.38
30338;BME280;17143;51.888;5.408;2023-09-30T19:01:32;102321.00;;;20.25;80.41
30338;BME280;17143;51.888;5.408;2023-09-30T19:16:34;102310.19;;;20.20;81.09
30338;BME280;17143;51.888;5.408;2023-09-30T19:31:36;102321.47;;;19.92;81.36
30338;BME280;17143;51.888;5.408;2023-09-30T19:46:38;102320.81;;;19.55;82.24
30338;BME280;17143;51.888;5.408;2023-09-30T20:01:40;102321.09;;;19.21;83.51
30338;BME280;17143;51.888;5.408;2023-09-30T20:16:43;102319.13;;;18.97;84.85
30338;BME280;17143;51.888;5.408;2023-09-30T20:31:50;102320.41;;;18.85;85.94
30338;BME280;17143;51.888;5.408;2023-09-30T20:46:52;102335.84;;;18.76;87.35
30338;BME280;17143;51.888;5.408;2023-09-30T21:01:54;102341.63;;;18.68;88.30
30338;BME280;17143;51.888;5.408;2023-09-30T21:16:56;102328.75;;;18.75;89.38
30338;BME280;17143;51.888;5.408;2023-09-30T21:31:58;102315.25;;;18.69;89.73
30338;BME280;17143;51.888;5.408;2023-09-30T21:47:00;102302.44;;;18.58;89.83
30338;BME280;17143;51.888;5.408;2023-09-30T22:02:02;102305.91;;;18.57;90.55
30338;BME280;17143;51.888;5.408;2023-09-30T22:17:04;102296.69;;;18.47;90.89
30338;BME280;17143;51.888;5.408;2023-09-30T22:32:06;102275.97;;;18.37;91.48
30338;BME280;17143;51.888;5.408;2023-09-30T22:47:09;102287.31;;;18.36;91.88
30338;BME280;17143;51.888;5.408;2023-09-30T23:02:11;102264.69;;;18.22;92.46
30338;BME280;17143;51.888;5.408;2023-09-30T23:17:13;102260.94;;;18.17;92.49
30338;BME280;17143;51.888;5.408;2023-09-30T23:32:15;102236.22;;;18.15;92.92
30338;BME280;17143;51.888;5.408;2023-09-30T23:47:17;102228.03;;;18.09;93.12
